createdAt,value
2023-04-18T00:00:35.215Z,14.0
2023-04-18T00:05:17.600Z,12.8
2023-04-18T00:10:23.439Z,14.5
2023-04-18T00:15:29.354Z,16.9
2023-04-18T00:20:19.694Z,13.7
2023-04-18T00:25:24.466Z,13.7
2023-04-18T00:30:30.648Z,14.3
2023-04-18T00:35:19.524Z,14.6
2023-04-18T00:40:27.146Z,14.0
2023-04-18T00:45:31.383Z,13.3
2023-04-18T00:50:20.328Z,13.5
2023-04-18T00:55:26.381Z,13.5
2023-04-18T01:00:33.055Z,13.5
2023-04-18T01:05:21.866Z,16.7
2023-04-18T01:10:28.010Z,18.0
2023-04-18T01:15:16.921Z,16.2
2023-04-18T01:20:23.124Z,16.5
2023-04-18T01:25:29.146Z,15.9
2023-04-18T01:30:18.158Z,17.3
2023-04-18T01:35:24.286Z,16.9
2023-04-18T01:40:30.366Z,15.1
2023-04-18T01:45:18.559Z,14.6
2023-04-18T01:50:24.690Z,14.4
2023-04-18T01:55:30.783Z,15.0
2023-04-18T02:00:22.881Z,14.1
2023-04-18T02:05:25.303Z,13.4
2023-04-18T02:10:31.244Z,14.7
2023-04-18T02:15:20.426Z,14.6
2023-04-18T02:20:26.481Z,13.5
2023-04-18T02:25:32.442Z,14.7
2023-04-18T02:30:21.593Z,15.2
2023-04-18T02:35:27.684Z,15.9
2023-04-18T02:40:16.762Z,17.2
2023-04-18T02:45:23.049Z,16.7
2023-04-18T02:50:29.472Z,16.0
2023-04-18T02:55:18.221Z,15.4
2023-04-18T03:00:24.488Z,15.0
2023-04-18T03:05:29.784Z,15.4
2023-04-18T03:10:18.746Z,16.9
2023-04-18T03:15:25.004Z,17.4
2023-04-18T03:20:31.014Z,16.8
2023-04-18T03:25:19.922Z,16.7
2023-04-18T03:30:26.106Z,16.8
2023-04-18T03:35:32.142Z,16.3
2023-04-18T03:40:22.390Z,17.2
2023-04-18T03:45:26.639Z,17.3
2023-04-18T03:50:32.939Z,17.0
2023-04-18T03:55:21.664Z,17.4
2023-04-18T04:00:34.032Z,17.1
2023-04-18T04:05:16.407Z,19.6
2023-04-18T04:10:22.489Z,21.0
2023-04-18T04:15:28.522Z,19.2
2023-04-18T04:20:17.568Z,20.5
2023-04-18T04:25:23.738Z,19.1
2023-04-18T04:30:29.739Z,19.5
2023-04-18T04:35:18.791Z,20.1
2023-04-18T04:40:25.051Z,20.1
2023-04-18T04:45:31.355Z,18.0
2023-04-18T04:50:20.345Z,18.6
2023-04-18T04:55:26.380Z,18.9
2023-04-18T05:00:32.422Z,17.6
2023-04-18T05:05:20.956Z,18.4
2023-04-18T05:10:26.933Z,19.1
2023-04-18T05:15:33.046Z,21.0
2023-04-18T05:20:23.152Z,22.2
2023-04-18T05:25:28.139Z,19.1
2023-04-18T05:30:17.143Z,17.9
2023-04-18T05:35:23.298Z,30.0
2023-04-18T05:40:29.360Z,17.5
2023-04-18T05:45:17.698Z,16.6
2023-04-18T05:50:23.630Z,16.2
2023-04-18T05:55:29.980Z,17.8
2023-04-18T06:00:22.014Z,16.4
2023-04-18T06:05:27.456Z,16.5
2023-04-18T06:10:31.350Z,15.6
2023-04-18T06:15:20.230Z,17.0
2023-04-18T06:20:26.257Z,20.3
2023-04-18T06:25:32.440Z,14.8
2023-04-18T06:30:21.467Z,16.4
2023-04-18T06:35:27.555Z,15.5
2023-04-18T06:40:33.825Z,16.5
2023-04-18T06:45:22.146Z,17.4
2023-04-18T06:50:28.169Z,15.2
2023-04-18T06:55:17.136Z,14.1
2023-04-18T07:00:24.568Z,13.6
2023-04-18T07:05:28.685Z,14.4
2023-04-18T07:10:17.726Z,13.9
2023-04-18T07:15:23.788Z,14.7
2023-04-18T07:20:29.893Z,13.9
2023-04-18T07:25:18.890Z,14.0
2023-04-18T07:30:24.975Z,14.4
2023-04-18T07:35:31.068Z,13.0
2023-04-18T07:40:21.129Z,13.1
2023-04-18T07:45:25.573Z,13.1
2023-04-18T07:50:31.584Z,12.8
2023-04-18T07:55:20.975Z,12.8
2023-04-18T08:00:30.075Z,12.3
2023-04-18T08:05:33.002Z,12.2
2023-04-18T08:10:23.698Z,12.2
2023-04-18T08:15:27.915Z,12.2
2023-04-18T08:20:17.048Z,11.3
2023-04-18T08:25:22.998Z,10.9
2023-04-18T08:30:29.194Z,11.3
2023-04-18T08:35:18.221Z,10.0
2023-04-18T08:40:24.480Z,9.7
2023-04-18T08:45:30.057Z,10.1
2023-04-18T08:50:19.136Z,9.7
2023-04-18T08:55:25.228Z,10.2
2023-04-18T09:00:31.391Z,10.2
2023-04-18T09:05:19.694Z,9.4
2023-04-18T09:10:25.579Z,9.3
2023-04-18T09:15:31.643Z,9.3
2023-04-18T09:20:22.108Z,8.8
2023-04-18T09:25:26.818Z,11.2
2023-04-18T09:30:32.894Z,9.2
2023-04-18T09:35:21.766Z,9.1
2023-04-18T09:40:28.049Z,9.1
2023-04-18T09:45:16.559Z,9.2
2023-04-18T09:50:22.629Z,9.0
2023-04-18T09:55:28.797Z,9.1
2023-04-18T10:00:18.362Z,9.9
2023-04-18T10:05:24.561Z,11.3
2023-04-18T10:10:30.090Z,7.8
2023-04-18T10:15:19.189Z,8.7
2023-04-18T10:20:26.989Z,8.5
2023-04-18T10:25:31.322Z,7.6
2023-04-18T10:30:20.381Z,8.4
2023-04-18T10:35:26.220Z,8.2
2023-04-18T10:40:32.399Z,8.5
2023-04-18T10:45:20.971Z,7.3
2023-04-18T10:50:27.315Z,7.3
2023-04-18T10:55:33.311Z,6.7
2023-04-18T11:00:23.703Z,6.8
2023-04-18T11:05:28.571Z,6.1
2023-04-18T11:10:16.582Z,7.5
2023-04-18T11:15:23.053Z,6.6
2023-04-18T11:20:28.829Z,8.3
2023-04-18T11:25:17.736Z,6.2
2023-04-18T11:30:23.906Z,6.4
2023-04-18T11:35:29.986Z,6.6
2023-04-18T11:40:19.879Z,6.0
2023-04-18T11:45:24.322Z,6.4
2023-04-18T11:50:30.359Z,6.3
2023-04-18T11:55:19.278Z,7.6
2023-04-18T12:00:28.940Z,7.1
2023-04-18T12:05:33.675Z,8.2
2023-04-18T12:10:20.629Z,7.5
2023-04-18T12:15:26.745Z,8.3
2023-04-18T12:20:32.817Z,8.6
2023-04-18T12:25:23.556Z,7.9
2023-04-18T12:30:27.931Z,8.6
2023-04-18T12:35:16.976Z,8.6
2023-04-18T12:40:24.045Z,7.4
2023-04-18T12:45:28.869Z,7.2
2023-04-18T12:50:17.907Z,7.5
2023-04-18T12:55:23.968Z,7.0
2023-04-18T13:00:30.640Z,7.0
2023-04-18T13:05:18.909Z,6.8
2023-04-18T13:10:24.943Z,7.1
2023-04-18T13:15:30.871Z,7.4
2023-04-18T13:20:20.718Z,7.4
2023-04-18T13:25:25.951Z,7.9
2023-04-18T13:30:32.128Z,8.3
2023-04-18T13:35:21.192Z,7.1
2023-04-18T13:40:27.278Z,6.9
2023-04-18T13:45:32.382Z,7.3
2023-04-18T13:50:21.304Z,7.2
2023-04-18T13:55:27.508Z,6.5
2023-04-18T14:00:17.090Z,7.1
2023-04-18T14:05:22.951Z,6.3
2023-04-18T14:10:28.948Z,6.9
2023-04-18T14:15:17.869Z,6.4
2023-04-18T14:20:25.492Z,6.0
2023-04-18T14:25:30.134Z,6.5
2023-04-18T14:30:19.173Z,6.1
2023-04-18T14:35:25.216Z,7.3
2023-04-18T14:40:32.937Z,7.0
2023-04-18T14:45:19.853Z,6.0
2023-04-18T14:50:25.953Z,7.0
2023-04-18T14:55:31.981Z,7.9
2023-04-18T15:00:22.814Z,9.7
2023-04-18T15:05:26.453Z,8.3
2023-04-18T15:10:32.368Z,8.3
2023-04-18T15:15:21.443Z,7.2
2023-04-18T15:20:27.629Z,7.3
2023-04-18T15:25:16.579Z,7.4
2023-04-18T15:30:22.714Z,7.3
2023-04-18T15:35:28.636Z,7.4
2023-04-18T15:40:17.701Z,7.5
2023-04-18T15:45:23.288Z,7.5
2023-04-18T15:50:30.301Z,8.0
2023-04-18T15:55:18.389Z,8.0
2023-04-18T16:00:28.531Z,8.6
2023-04-18T16:05:30.785Z,7.5
2023-04-18T16:10:19.559Z,8.4
2023-04-18T16:15:25.753Z,7.5
2023-04-18T16:20:31.703Z,8.1
2023-04-18T16:25:20.722Z,7.8
2023-04-18T16:30:26.947Z,8.8
2023-04-18T16:35:32.883Z,8.8
2023-04-18T16:40:23.441Z,8.7
2023-04-18T16:45:27.744Z,10.2
2023-04-18T16:50:16.894Z,8.8
2023-04-18T16:55:22.796Z,9.7
2023-04-18T17:00:31.057Z,9.3
2023-04-18T17:05:17.358Z,12.8
2023-04-18T17:10:23.391Z,12.0
2023-04-18T17:15:29.451Z,14.2
2023-04-18T17:20:18.471Z,12.2
2023-04-18T17:25:24.546Z,14.2
2023-04-18T17:30:30.728Z,12.1
2023-04-18T17:35:19.653Z,10.9
2023-04-18T17:40:26.900Z,10.7
2023-04-18T17:45:31.498Z,9.7
2023-04-18T17:50:20.306Z,10.9
2023-04-18T17:55:26.467Z,10.3
2023-04-18T18:00:36.729Z,9.7
2023-04-18T18:05:21.905Z,9.9
2023-04-18T18:10:29.844Z,10.7
2023-04-18T18:15:16.876Z,8.5
2023-04-18T18:20:24.317Z,8.8
2023-04-18T18:25:29.174Z,10.0
2023-04-18T18:30:18.236Z,9.7
2023-04-18T18:35:24.466Z,9.3
2023-04-18T18:40:30.240Z,9.8
2023-04-18T18:45:18.734Z,8.8
2023-04-18T18:50:24.811Z,8.9
2023-04-18T18:55:30.962Z,8.9
2023-04-18T19:00:21.709Z,9.3
2023-04-18T19:05:25.414Z,10.0
2023-04-18T19:10:31.451Z,10.5
2023-04-18T19:15:20.457Z,9.5
2023-04-18T19:20:28.708Z,9.9
2023-04-18T19:25:32.608Z,9.4
2023-04-18T19:30:21.642Z,9.5
2023-04-18T19:35:27.718Z,9.7
2023-04-18T19:40:16.820Z,10.8
2023-04-18T19:45:22.484Z,10.1
2023-04-18T19:50:28.569Z,9.4
2023-04-18T19:55:17.547Z,10.3
2023-04-18T20:00:28.706Z,10.6
2023-04-18T20:05:30.204Z,10.1
2023-04-18T20:10:19.050Z,10.1
2023-04-18T20:15:25.121Z,11.2
2023-04-18T20:20:31.182Z,11.6
2023-04-18T20:25:20.203Z,9.5
2023-04-18T20:30:26.262Z,10.0
2023-04-18T20:35:32.290Z,10.3
2023-04-18T20:40:22.536Z,9.4
2023-04-18T20:45:26.892Z,10.1
2023-04-18T20:50:32.962Z,9.6
2023-04-18T20:55:22.020Z,9.8
2023-04-18T21:00:29.433Z,9.9
2023-04-18T21:05:16.224Z,10.7
2023-04-18T21:10:22.761Z,9.6
2023-04-18T21:15:28.360Z,10.4
2023-04-18T21:20:17.600Z,10.0
2023-04-18T21:25:23.457Z,10.4
2023-04-18T21:30:29.401Z,9.9
2023-04-18T21:35:20.210Z,11.0
2023-04-18T21:40:25.585Z,8.7
2023-04-18T21:45:30.430Z,11.4
2023-04-18T21:50:19.418Z,9.7
2023-04-18T21:55:25.445Z,10.0
2023-04-18T22:00:35.024Z,10.0
2023-04-18T22:05:21.050Z,10.0
2023-04-18T22:10:27.087Z,11.0
2023-04-18T22:15:33.025Z,11.4
2023-04-18T22:20:24.085Z,11.9
2023-04-18T22:25:27.990Z,12.2
2023-04-18T22:30:17.176Z,12.3
2023-04-18T22:35:23.174Z,12.7
2023-04-18T22:40:29.161Z,13.3
2023-04-18T22:45:17.663Z,13.0
2023-04-18T22:50:23.823Z,14.8
2023-04-18T22:55:29.912Z,15.2
2023-04-18T23:00:19.720Z,15.5
2023-04-18T23:05:24.504Z,14.7
2023-04-18T23:10:30.419Z,14.0
2023-04-18T23:15:19.395Z,12.8
2023-04-18T23:20:25.585Z,14.7
2023-04-18T23:25:31.585Z,14.5
2023-04-18T23:30:23.626Z,12.9
2023-04-18T23:35:26.779Z,12.8
2023-04-18T23:40:33.191Z,12.7
2023-04-18T23:45:22.026Z,12.2
2023-04-18T23:50:28.302Z,12.2
2023-04-18T23:55:17.145Z,15.2
